Terminal Aerodrome Forecast
Issued by NWS

Home | Current Version | Previous Version | Text Only | Print | Product List | Glossary On
Versions: 1 2 3 4 5 6 7 8 9 10 11 12 13 14 15 16 17 18
000
FTUS46 KSEW 021007 AAA
TAFHQM
TAF AMD
KHQM 021007Z 0210/0306 VRB03KT P6SM SCT200
     FM021400 VRB03KT P6SM SCT006
     FM021800 22010KT P6SM SCT150
     FM022100 24012KT P6SM SCT150=

USA.gov is the U.S. government's official web portal to all federal, state and local government web resources and services.